GMMX/RAK METAR and TAF weather

Enter ICAO airport designator
Station Type Date Time Source
GMMX METAR 2021/03/06 02:00 UTC NOAA

GMMX 060200Z 28005KT 3000 -RA SCT013 BKN020 12/11 Q1013 NOSIG


Station Type Date Time Source
GMMX Decoded METAR 2021/03/06 02:00 UTC NOAA

Marrakech, Morocco (GMMX) 31-37N 008-02W 466M
Mar 05, 2021 - 09:00 PM EST / 2021.03.06 0200 UTC
Wind: from the W (280 degrees) at 6 MPH (5 KT):0
Visibility: 1 mile(s):0
Sky conditions: mostly cloudy
Weather: light rain
Temperature: 53 F (12 C)
Dew Point: 51 F (11 C)
Relative Humidity: 93%
Pressure (altimeter): 29.91 in. Hg (1013 hPa)
ob: GMMX 060200Z 28005KT 3000 -RA SCT013 BKN020 12/11 Q1013 NOSIG
cycle: 2

Station Type Date Time Source
GMMX TAF 2021/03/05 18:45 UTC NOAA

TAF TAF GMMX 051700Z 0518/0624 32014KT 8000 BKN020 FEW030CB SCT080
TEMPO 0518/0520 3014G24KT
TEMPO 0520/0601 3000 TSRA
TEMPO 0601/0607 4000 SHRA
TEMPO 0615/0622 30014G24KT 3000 TSRA

Example: see airport list